Time;durP1;ratioP1;P1;durP2;ratioP2;P2;SDS_P1;SDS_P2;PMS_P1;PMS_P2;Temp;Humidity;BMP_temperature;BMP_pressure;BME280_temperature;BME280_humidity;BME280_pressure;Samples;Min_cycle;Max_cycle;Signal;HPM_P1;HPM_P2
2022/03/25 00:01:46;;;;;;;47.13;29.63;;;7.30;86.70;;;;;;4998276;28;20064;-82
2022/03/25 00:09:17;;;;;;;55.70;30.67;;;7.00;81.60;;;;;;4985847;28;20455;-79
2022/03/25 00:11:42;;;;;;;55.10;30.80;;;7.00;83.80;;;;;;4965681;28;20049;-84
2022/03/25 00:14:09;;;;;;;58.50;31.83;;;6.90;84.50;;;;;;4953547;28;20401;-84
2022/03/25 00:16:35;;;;;;;51.60;32.25;;;6.90;87.50;;;;;;4952827;28;20060;-84
2022/03/25 00:19:00;;;;;;;60.80;36.35;;;6.80;90.00;;;;;;4966803;28;20474;-82
2022/03/25 00:21:26;;;;;;;55.75;34.08;;;6.50;94.00;;;;;;4967652;28;20033;-85
2022/03/25 00:23:51;;;;;;;66.35;34.30;;;6.50;90.20;;;;;;4966905;28;20045;-85
2022/03/25 00:26:17;;;;;;;61.75;35.60;;;6.60;90.70;;;;;;4941941;28;20118;-85
2022/03/25 00:28:42;;;;;;;65.05;36.47;;;6.50;90.90;;;;;;4951020;28;20045;-86
2022/03/25 00:31:08;;;;;;;67.70;38.28;;;6.50;91.00;;;;;;4941419;28;20291;-84
2022/03/25 00:33:34;;;;;;;63.58;37.80;;;6.20;96.10;;;;;;4956815;28;20481;-85
2022/03/25 00:36:01;;;;;;;64.35;36.70;;;6.00;97.00;;;;;;4938763;28;20030;-85
2022/03/25 00:38:27;;;;;;;62.67;37.25;;;6.00;93.20;;;;;;4962601;28;20034;-86
2022/03/25 00:40:53;;;;;;;66.28;37.63;;;6.10;94.50;;;;;;4961360;28;20549;-82
2022/03/25 00:43:20;;;;;;;56.97;35.45;;;6.00;96.40;;;;;;4966755;28;20133;-85
2022/03/25 00:45:46;;;;;;;67.32;37.70;;;6.00;93.40;;;;;;4953519;28;20090;-83
2022/03/25 00:48:13;;;;;;;63.25;36.47;;;6.00;93.20;;;;;;4937751;28;20061;-86
2022/03/25 00:50:39;;;;;;;69.65;37.95;;;6.00;93.40;;;;;;4973570;28;20528;-86
2022/03/25 00:53:04;;;;;;;60.92;35.03;;;6.10;92.20;;;;;;4952822;28;20038;-86
2022/03/25 00:55:30;;;;;;;64.40;36.85;;;6.10;92.10;;;;;;4954022;28;20135;-86
2022/03/25 00:57:58;;;;;;;71.53;39.20;;;5.90;95.50;;;;;;4943653;28;20030;-82
2022/03/25 01:00:24;;;;;;;72.55;38.55;;;5.80;95.80;;;;;;4965240;28;20031;-84
2022/03/25 01:02:49;;;;;;;72.32;39.38;;;5.70;96.90;;;;;;4955766;28;20069;-86
2022/03/25 01:05:17;;;;;;;66.22;38.90;;;5.50;98.90;;;;;;4931134;28;20395;-85
2022/03/25 01:07:43;;;;;;;70.32;38.97;;;5.50;97.20;;;;;;4948661;28;20077;-83
2022/03/25 01:10:10;;;;;;;71.55;39.97;;;5.40;99.30;;;;;;4932306;28;20034;-85
2022/03/25 01:12:35;;;;;;;69.63;40.15;;;5.30;99.90;;;;;;4933939;28;20399;-85
2022/03/25 01:15:01;;;;;;;74.75;41.13;;;5.40;98.50;;;;;;4944549;28;20049;-82
2022/03/25 01:17:27;;;;;;;74.63;41.38;;;5.30;99.90;;;;;;4950656;28;20042;-86
2022/03/25 01:19:52;;;;;;;74.03;39.25;;;5.10;99.90;;;;;;4959588;28;20084;-85
2022/03/25 01:22:18;;;;;;;73.82;41.05;;;5.10;99.90;;;;;;4938372;28;20050;-86
2022/03/25 01:24:43;;;;;;;71.43;39.47;;;5.10;99.90;;;;;;4941176;28;20335;-84
2022/03/25 01:27:09;;;;;;;67.82;39.03;;;5.00;99.90;;;;;;4940808;28;20457;-84
2022/03/25 01:29:35;;;;;;;69.25;39.00;;;4.70;99.90;;;;;;4937905;28;20057;-83
2022/03/25 01:32:01;;;;;;;70.07;40.38;;;4.70;99.90;;;;;;4945829;28;20026;-83
2022/03/25 01:34:27;;;;;;;70.78;40.17;;;4.60;99.90;;;;;;4939451;28;20101;-83
2022/03/25 01:36:53;;;;;;;74.93;40.38;;;4.50;99.90;;;;;;4960616;28;20073;-83
2022/03/25 01:39:18;;;;;;;77.85;41.22;;;4.60;99.90;;;;;;4941048;28;20022;-84
2022/03/25 01:41:47;;;;;;;73.22;40.25;;;4.90;99.90;;;;;;4953187;28;20035;-84
2022/03/25 01:44:13;;;;;;;67.93;39.22;;;4.70;99.90;;;;;;4946924;28;20030;-83
2022/03/25 01:46:38;;;;;;;68.25;38.00;;;4.50;99.90;;;;;;4959627;28;20496;-84
2022/03/25 01:49:05;;;;;;;60.00;35.08;;;4.80;99.90;;;;;;4958508;28;20026;-84
2022/03/25 01:51:32;;;;;;;76.57;42.03;;;5.00;99.90;;;;;;4961437;28;20038;-84
2022/03/25 01:54:10;;;;;;;73.28;39.35;;;5.00;99.90;;;;;;4957649;28;20084;-84
2022/03/25 01:56:36;;;;;;;62.80;36.60;;;4.50;99.90;;;;;;4967913;28;20085;-81
2022/03/25 01:59:01;;;;;;;71.18;38.88;;;4.20;99.90;;;;;;4955781;28;20031;-83
2022/03/25 02:01:27;;;;;;;71.88;38.53;;;4.40;99.90;;;;;;4935837;28;20050;-84
2022/03/25 02:03:53;;;;;;;68.32;37.60;;;4.70;99.90;;;;;;4945595;28;20038;-85
2022/03/25 02:06:19;;;;;;;70.82;38.00;;;4.60;99.90;;;;;;4958785;28;20065;-84
2022/03/25 02:08:44;;;;;;;67.90;38.80;;;4.70;99.90;;;;;;4940838;28;20042;-85
2022/03/25 02:11:11;;;;;;;71.32;40.08;;;4.50;99.90;;;;;;4952434;28;20157;-85
2022/03/25 02:13:36;;;;;;;66.13;38.47;;;4.50;99.90;;;;;;4940172;28;20041;-85
2022/03/25 02:16:02;;;;;;;62.95;35.35;;;4.50;99.90;;;;;;4952440;28;20031;-84
2022/03/25 02:18:28;;;;;;;70.38;40.42;;;4.50;99.90;;;;;;4937603;28;20034;-82
2022/03/25 02:20:53;;;;;;;72.75;40.28;;;4.50;99.90;;;;;;4956761;28;20042;-84
2022/03/25 02:23:19;;;;;;;66.03;38.65;;;4.20;99.90;;;;;;4939566;28;20035;-85
2022/03/25 02:25:46;;;;;;;75.18;39.78;;;4.30;99.90;;;;;;4959431;28;20049;-84
2022/03/25 02:28:11;;;;;;;72.88;41.30;;;4.20;99.90;;;;;;4946335;28;20034;-85
2022/03/25 02:30:37;;;;;;;72.93;41.35;;;4.00;99.90;;;;;;4965268;28;20390;-83
2022/03/25 02:33:04;;;;;;;68.63;39.80;;;4.10;99.90;;;;;;4956269;28;20031;-85
2022/03/25 02:35:45;;;;;;;79.05;41.35;;;3.90;99.90;;;;;;4971114;28;20035;-86
2022/03/25 02:38:16;;;;;;;73.93;43.05;;;3.70;99.90;;;;;;4951280;28;20104;-85
2022/03/25 02:40:42;;;;;;;77.32;42.40;;;3.80;99.90;;;;;;4971785;28;20457;-86
2022/03/25 02:43:08;;;;;;;72.50;41.53;;;3.80;99.90;;;;;;4956899;28;20105;-85
2022/03/25 02:45:33;;;;;;;69.28;40.40;;;3.80;99.90;;;;;;4937799;28;20481;-86
2022/03/25 02:48:02;;;;;;;66.55;39.10;;;3.90;99.90;;;;;;4938633;28;20051;-86
2022/03/25 02:50:28;;;;;;;70.22;38.58;;;3.80;99.90;;;;;;4937641;28;20034;-85
2022/03/25 02:52:54;;;;;;;75.20;40.25;;;3.90;99.90;;;;;;4962796;28;20429;-85
2022/03/25 02:55:20;;;;;;;71.25;40.30;;;3.90;99.90;;;;;;4972162;28;20037;-84
2022/03/25 02:57:45;;;;;;;70.25;40.90;;;3.60;99.90;;;;;;4937880;28;20051;-84
2022/03/25 03:00:11;;;;;;;75.13;39.78;;;3.40;99.90;;;;;;4944084;28;20109;-83
2022/03/25 03:02:37;;;;;;;71.03;39.00;;;3.30;99.90;;;;;;4970334;28;20141;-85
2022/03/25 03:05:05;;;;;;;74.55;39.22;;;3.60;99.90;;;;;;4956968;28;20034;-84
2022/03/25 03:07:30;;;;;;;64.78;36.38;;;3.50;99.90;;;;;;4947755;28;20065;-83
2022/03/25 03:09:56;;;;;;;67.32;39.63;;;3.60;99.90;;;;;;4938383;28;20092;-84
2022/03/25 03:12:22;;;;;;;59.97;34.60;;;3.80;99.90;;;;;;4935553;28;20092;-84
2022/03/25 03:14:48;;;;;;;62.00;33.08;;;3.60;99.90;;;;;;4956364;28;20045;-85
2022/03/25 03:17:13;;;;;;;68.07;37.30;;;3.80;99.90;;;;;;4956371;28;20030;-85
2022/03/25 03:19:39;;;;;;;76.32;41.10;;;3.50;99.90;;;;;;4936088;28;20070;-86
2022/03/25 03:22:05;;;;;;;70.95;39.08;;;3.60;99.90;;;;;;4938733;28;20060;-82
2022/03/25 03:24:30;;;;;;;72.10;39.70;;;3.70;99.90;;;;;;4951439;28;20397;-84
2022/03/25 03:26:57;;;;;;;61.58;36.53;;;3.20;99.90;;;;;;4938349;28;20038;-83
2022/03/25 03:29:23;;;;;;;73.28;40.22;;;3.30;99.90;;;;;;4938061;28;20061;-85
2022/03/25 03:31:49;;;;;;;78.57;41.45;;;3.30;99.90;;;;;;4936362;28;20518;-86
2022/03/25 03:34:14;;;;;;;73.38;38.42;;;3.00;99.90;;;;;;4938949;28;20089;-85
2022/03/25 03:36:40;;;;;;;73.53;40.90;;;2.90;99.90;;;;;;4944551;28;20121;-84
2022/03/25 03:39:05;;;;;;;79.20;42.70;;;3.20;99.90;;;;;;4951299;28;20049;-82
2022/03/25 03:41:31;;;;;;;75.43;40.65;;;3.10;99.90;;;;;;4953634;28;20446;-84
2022/03/25 03:43:56;;;;;;;76.00;42.42;;;2.90;99.90;;;;;;4943376;28;20512;-85
2022/03/25 03:46:22;;;;;;;71.90;39.00;;;2.80;99.90;;;;;;4938084;28;20108;-85
2022/03/25 03:48:49;;;;;;;71.43;40.28;;;3.00;99.90;;;;;;4955957;28;20502;-84
2022/03/25 03:51:14;;;;;;;78.88;41.78;;;3.00;99.90;;;;;;4941680;28;20046;-85
2022/03/25 03:53:40;;;;;;;75.97;41.05;;;2.90;99.90;;;;;;4948885;28;20050;-84
2022/03/25 03:56:06;;;;;;;67.13;36.67;;;2.80;99.90;;;;;;4969705;28;20031;-85
2022/03/25 03:58:31;;;;;;;75.63;40.42;;;3.10;99.90;;;;;;4945950;28;20093;-85
2022/03/25 04:00:57;;;;;;;58.63;32.35;;;3.40;99.90;;;;;;4950214;28;20073;-84
2022/03/25 04:03:22;;;;;;;65.88;36.28;;;3.10;99.90;;;;;;4937228;28;20062;-84
2022/03/25 04:05:48;;;;;;;71.80;38.03;;;3.30;99.90;;;;;;4954631;28;20057;-85
2022/03/25 04:08:13;;;;;;;68.55;36.30;;;3.10;99.90;;;;;;4948182;28;20042;-85
2022/03/25 04:10:39;;;;;;;68.45;38.10;;;2.90;99.90;;;;;;4949453;28;20081;-82
2022/03/25 04:13:05;;;;;;;72.10;38.08;;;3.10;99.90;;;;;;4940141;28;20074;-84
2022/03/25 04:15:30;;;;;;;69.68;38.50;;;3.00;99.90;;;;;;4934654;28;20031;-85
2022/03/25 04:17:56;;;;;;;79.32;39.17;;;2.90;99.90;;;;;;4956176;28;20052;-84
2022/03/25 04:20:22;;;;;;;62.10;32.85;;;2.80;99.90;;;;;;4967543;28;20382;-85
2022/03/25 04:22:47;;;;;;;75.03;40.22;;;2.90;99.90;;;;;;4940087;28;20075;-83
2022/03/25 04:25:13;;;;;;;73.18;39.55;;;2.80;99.90;;;;;;4950478;28;20042;-85
2022/03/25 04:27:45;;;;;;;69.28;38.30;;;2.60;99.90;;;;;;4950246;28;20093;-84
2022/03/25 04:30:11;;;;;;;81.22;41.15;;;2.50;99.90;;;;;;4957687;28;20489;-84
2022/03/25 04:32:36;;;;;;;75.85;40.45;;;2.60;99.90;;;;;;4938166;28;20150;-85
2022/03/25 04:35:02;;;;;;;81.28;41.95;;;2.50;99.90;;;;;;4971299;28;20504;-84
2022/03/25 04:37:28;;;;;;;77.40;40.28;;;2.50;99.90;;;;;;4955616;28;20045;-84
2022/03/25 04:39:53;;;;;;;79.07;42.33;;;2.40;99.90;;;;;;4957772;28;20497;-84
2022/03/25 04:42:19;;;;;;;75.18;41.65;;;2.30;99.90;;;;;;4953013;28;20540;-84
2022/03/25 04:44:44;;;;;;;79.53;43.83;;;2.20;99.90;;;;;;4939109;28;20031;-82
2022/03/25 04:47:10;;;;;;;77.57;41.50;;;2.30;99.90;;;;;;4954053;28;20514;-84
2022/03/25 04:49:35;;;;;;;81.82;42.35;;;2.20;99.90;;;;;;4967239;28;20058;-84
2022/03/25 04:52:01;;;;;;;79.55;43.13;;;2.20;99.90;;;;;;4955160;28;20035;-83
2022/03/25 04:54:27;;;;;;;79.38;41.22;;;2.30;99.90;;;;;;4950800;28;20109;-82
2022/03/25 04:56:52;;;;;;;80.28;41.65;;;2.30;99.90;;;;;;4937649;28;20405;-83
2022/03/25 04:59:18;;;;;;;80.50;42.10;;;2.40;99.90;;;;;;4963495;28;20026;-83
2022/03/25 05:01:45;;;;;;;69.35;36.25;;;2.20;99.90;;;;;;4952454;28;20046;-83
2022/03/25 05:04:10;;;;;;;76.45;40.75;;;2.20;99.90;;;;;;4937098;28;20537;-83
2022/03/25 05:06:36;;;;;;;82.70;43.55;;;2.50;99.90;;;;;;4968156;28;20081;-83
2022/03/25 05:09:01;;;;;;;79.43;42.47;;;2.40;99.90;;;;;;4936148;28;20034;-84
2022/03/25 05:11:27;;;;;;;74.65;38.83;;;2.20;99.90;;;;;;4932263;28;20035;-83
2022/03/25 05:13:52;;;;;;;82.43;42.83;;;2.30;99.90;;;;;;4939250;28;20191;-85
2022/03/25 05:16:18;;;;;;;76.78;42.10;;;2.10;99.90;;;;;;4956237;28;20397;-84
2022/03/25 05:18:43;;;;;;;59.65;34.03;;;2.00;99.90;;;;;;4927797;28;20444;-81
2022/03/25 05:21:09;;;;;;;71.80;38.35;;;2.00;99.90;;;;;;4936579;28;20049;-85
2022/03/25 05:23:35;;;;;;;78.25;41.10;;;2.30;99.90;;;;;;4935278;28;20031;-79
2022/03/25 05:26:01;;;;;;;81.50;42.72;;;2.20;99.90;;;;;;4972148;28;20431;-84
2022/03/25 05:28:26;;;;;;;82.68;42.72;;;2.10;99.90;;;;;;4935154;28;20109;-83
2022/03/25 05:30:52;;;;;;;62.22;34.78;;;1.90;99.90;;;;;;4948503;28;20043;-83
2022/03/25 05:33:17;;;;;;;76.70;39.33;;;2.30;99.90;;;;;;4935150;28;20046;-82
2022/03/25 05:35:43;;;;;;;82.30;40.00;;;2.50;99.90;;;;;;4933749;28;20030;-83
2022/03/25 05:38:09;;;;;;;76.35;38.97;;;2.30;99.90;;;;;;4939517;28;20061;-84
2022/03/25 05:40:34;;;;;;;71.78;37.55;;;2.20;99.90;;;;;;4949264;28;20062;-82
2022/03/25 05:43:00;;;;;;;77.05;39.33;;;2.00;99.90;;;;;;4964817;28;20027;-81
2022/03/25 05:45:26;;;;;;;74.53;38.75;;;2.20;99.90;;;;;;4940054;28;20057;-85
2022/03/25 05:47:52;;;;;;;53.70;29.90;;;2.10;99.90;;;;;;4943015;28;20038;-83
2022/03/25 05:50:17;;;;;;;72.85;37.63;;;2.40;99.90;;;;;;4942170;28;20088;-84
2022/03/25 05:52:43;;;;;;;76.30;39.22;;;2.40;99.90;;;;;;4944434;28;20055;-85
2022/03/25 05:55:09;;;;;;;64.05;33.33;;;2.10;99.90;;;;;;4940844;28;20026;-84
2022/03/25 05:57:35;;;;;;;81.28;41.75;;;2.20;99.90;;;;;;4963818;28;20070;-84
2022/03/25 06:00:01;;;;;;;75.97;41.15;;;2.50;99.90;;;;;;4962017;28;20129;-85
2022/03/25 06:02:26;;;;;;;69.65;36.38;;;2.30;99.90;;;;;;4942109;28;20046;-81
2022/03/25 06:04:52;;;;;;;64.03;34.58;;;2.20;99.90;;;;;;4957452;28;20046;-85
2022/03/25 06:07:18;;;;;;;81.05;41.97;;;2.40;99.90;;;;;;4955233;28;20098;-84
2022/03/25 06:09:45;;;;;;;82.95;42.38;;;2.10;99.90;;;;;;4956434;28;20050;-84
2022/03/25 06:12:11;;;;;;;82.95;42.55;;;2.20;99.90;;;;;;4950638;28;20043;-85
2022/03/25 06:14:37;;;;;;;82.78;44.55;;;2.30;99.90;;;;;;4967774;28;20039;-83
2022/03/25 06:17:03;;;;;;;86.78;42.65;;;2.20;99.90;;;;;;4955571;28;20045;-84
2022/03/25 06:19:29;;;;;;;91.40;44.60;;;2.30;99.90;;;;;;4961926;28;20038;-83
2022/03/25 06:21:56;;;;;;;92.43;44.15;;;2.40;99.90;;;;;;4961074;28;20508;-82
2022/03/25 06:24:21;;;;;;;97.28;46.50;;;2.40;99.90;;;;;;4960223;28;20027;-82
2022/03/25 06:26:47;;;;;;;87.03;43.85;;;2.40;99.90;;;;;;4985763;28;20050;-83
2022/03/25 06:29:12;;;;;;;93.15;44.88;;;2.70;99.90;;;;;;4967272;28;20041;-85
2022/03/25 06:31:38;;;;;;;90.15;44.72;;;2.80;99.90;;;;;;4959396;28;20105;-82
2022/03/25 06:34:03;;;;;;;86.80;43.90;;;2.80;99.90;;;;;;4957120;28;20516;-83
2022/03/25 06:36:29;;;;;;;89.35;44.67;;;2.80;99.90;;;;;;4960403;28;20061;-85
2022/03/25 06:38:55;;;;;;;92.25;44.80;;;2.80;99.90;;;;;;4966424;28;20030;-85
2022/03/25 06:41:20;;;;;;;88.43;42.85;;;2.80;99.90;;;;;;4970393;28;20041;-84
2022/03/25 06:43:46;;;;;;;81.68;42.70;;;3.10;99.90;;;;;;4947763;28;20088;-84
2022/03/25 06:46:12;;;;;;;89.10;45.28;;;3.20;99.90;;;;;;4942238;28;20098;-82
2022/03/25 06:48:37;;;;;;;88.75;46.47;;;3.10;99.90;;;;;;4959214;28;20102;-84
2022/03/25 06:51:05;;;;;;;81.95;43.05;;;3.30;99.90;;;;;;4959662;28;20058;-86
2022/03/25 06:53:31;;;;;;;92.70;46.33;;;3.40;99.90;;;;;;4965005;28;20118;-84
2022/03/25 06:55:57;;;;;;;87.22;45.90;;;3.40;99.90;;;;;;4983213;28;20602;-84
2022/03/25 06:58:23;;;;;;;89.63;45.97;;;3.50;99.90;;;;;;4952767;28;20129;-82
2022/03/25 07:00:49;;;;;;;88.60;46.75;;;3.50;99.90;;;;;;4960192;28;20042;-84
2022/03/25 07:03:15;;;;;;;90.22;46.00;;;3.60;99.90;;;;;;4961263;28;20053;-83
2022/03/25 07:05:40;;;;;;;91.88;46.80;;;3.70;99.90;;;;;;4967648;28;20070;-84
2022/03/25 07:08:06;;;;;;;84.75;45.30;;;3.80;99.90;;;;;;4982189;28;20065;-85
2022/03/25 07:10:33;;;;;;;79.53;42.70;;;3.90;99.90;;;;;;4946161;28;20089;-85
2022/03/25 07:12:59;;;;;;;76.20;41.47;;;4.10;99.90;;;;;;4962520;28;20062;-85
2022/03/25 07:15:25;;;;;;;72.50;38.67;;;4.20;99.90;;;;;;4963127;28;20042;-85
2022/03/25 07:17:52;;;;;;;54.10;28.98;;;4.50;99.90;;;;;;4962285;28;20128;-86
2022/03/25 07:20:18;;;;;;;75.47;40.53;;;4.80;99.90;;;;;;4960305;28;20038;-85
2022/03/25 07:22:45;;;;;;;78.10;42.92;;;4.80;99.90;;;;;;4963011;28;20043;-86
2022/03/25 07:25:20;;;;;;;59.65;34.22;;;4.60;99.90;;;;;;4947216;28;20038;-81
2022/03/25 07:27:47;;;;;;;68.23;39.47;;;4.80;99.90;;;;;;4941712;28;20069;-85
2022/03/25 07:30:13;;;;;;;75.95;41.85;;;4.80;99.90;;;;;;4949427;28;20172;-85
2022/03/25 07:32:39;;;;;;;79.68;45.38;;;5.00;99.90;;;;;;4937598;28;20042;-81
2022/03/25 07:35:05;;;;;;;75.45;42.88;;;4.90;99.90;;;;;;4960086;28;20049;-85
2022/03/25 07:37:30;;;;;;;76.35;42.85;;;5.10;99.90;;;;;;4941826;28;20026;-85
2022/03/25 07:39:56;;;;;;;70.72;38.58;;;5.50;99.90;;;;;;4965478;28;20133;-86
2022/03/25 07:42:21;;;;;;;45.33;27.48;;;5.90;99.90;;;;;;4954048;28;20051;-85
2022/03/25 07:44:47;;;;;;;69.55;39.88;;;6.20;99.90;;;;;;4939735;28;20034;-86
2022/03/25 07:47:14;;;;;;;56.10;30.45;;;6.50;99.90;;;;;;4938801;28;20026;-87
2022/03/25 07:49:40;;;;;;;68.50;40.00;;;6.80;99.90;;;;;;4940925;28;20315;-87
2022/03/25 07:52:10;;;;;;;76.50;41.47;;;7.00;99.90;;;;;;4957057;28;20037;-87
2022/03/25 07:54:36;;;;;;;57.13;33.83;;;6.80;99.90;;;;;;4952143;28;20104;-86
2022/03/25 07:57:01;;;;;;;82.72;44.67;;;6.90;99.90;;;;;;4960356;28;20026;-86
2022/03/25 07:59:28;;;;;;;73.68;42.72;;;7.10;99.90;;;;;;4935711;28;20505;-83
2022/03/25 08:01:54;;;;;;;72.95;39.60;;;6.90;99.90;;;;;;4943065;28;20473;-87
2022/03/25 08:04:21;;;;;;;75.72;44.15;;;7.00;99.90;;;;;;4936576;28;20034;-87
2022/03/25 08:06:47;;;;;;;75.22;44.42;;;7.10;99.90;;;;;;4953558;28;20058;-84
2022/03/25 08:09:12;;;;;;;73.20;43.13;;;7.00;99.90;;;;;;4943689;28;20489;-85
2022/03/25 08:11:40;;;;;;;72.05;40.00;;;7.30;99.90;;;;;;4941448;28;20041;-87
2022/03/25 08:14:06;;;;;;;73.47;41.72;;;8.00;99.90;;;;;;4946405;28;20058;-87
2022/03/25 08:16:32;;;;;;;81.75;42.42;;;7.90;99.90;;;;;;4940353;28;20034;-85
2022/03/25 08:18:58;;;;;;;80.18;43.58;;;8.00;99.90;;;;;;4946208;28;20038;-85
2022/03/25 08:21:23;;;;;;;83.00;44.58;;;8.30;99.90;;;;;;4943349;28;20030;-85
2022/03/25 08:29:20;;;;;;;68.45;39.55;;;8.40;99.90;;;;;;4961395;28;20077;-83
2022/03/25 08:31:45;;;;;;;54.38;32.95;;;9.20;99.90;;;;;;4949095;28;20065;-83
2022/03/25 08:34:14;;;;;;;69.00;38.67;;;9.20;99.90;;;;;;4969043;28;20509;-81
2022/03/25 08:36:40;;;;;;;69.45;39.58;;;9.50;99.90;;;;;;4952176;28;20039;-81
2022/03/25 08:39:06;;;;;;;67.93;38.58;;;9.30;99.90;;;;;;4967564;28;20039;-83
2022/03/25 08:41:32;;;;;;;71.30;40.22;;;9.30;99.90;;;;;;4950551;28;20045;-81
2022/03/25 08:43:57;;;;;;;74.10;40.42;;;9.10;99.90;;;;;;4954575;28;20049;-81
2022/03/25 08:46:23;;;;;;;69.05;40.40;;;8.90;99.90;;;;;;4957684;28;20031;-85
2022/03/25 08:48:49;;;;;;;68.15;38.92;;;8.90;99.90;;;;;;4965447;28;20042;-84
2022/03/25 08:51:15;;;;;;;67.38;38.92;;;9.50;99.90;;;;;;4949165;28;20038;-79
2022/03/25 08:53:41;;;;;;;71.53;39.35;;;10.10;99.90;;;;;;4962858;28;20049;-85
2022/03/25 08:56:07;;;;;;;76.15;39.88;;;10.00;99.90;;;;;;4966994;28;20052;-84
2022/03/25 08:58:34;;;;;;;63.75;39.15;;;10.40;99.90;;;;;;4942866;28;20063;-85
2022/03/25 09:01:00;;;;;;;75.57;37.55;;;10.40;99.90;;;;;;4972887;28;20501;-84
2022/03/25 09:03:25;;;;;;;66.55;36.00;;;10.60;99.90;;;;;;4940209;28;20042;-85
2022/03/25 09:05:51;;;;;;;69.95;36.85;;;11.10;99.90;;;;;;4962774;28;20053;-82
2022/03/25 09:08:17;;;;;;;68.28;36.30;;;11.30;99.90;;;;;;4949321;28;20038;-81
2022/03/25 09:10:44;;;;;;;60.50;32.22;;;11.10;99.90;;;;;;4943209;28;20069;-85
2022/03/25 09:13:11;;;;;;;62.55;34.15;;;11.60;99.90;;;;;;4961080;28;20030;-85
2022/03/25 09:15:36;;;;;;;62.08;35.58;;;11.50;99.90;;;;;;4959087;28;20079;-85
2022/03/25 09:18:02;;;;;;;68.63;35.80;;;11.20;99.90;;;;;;4945875;28;20035;-84
2022/03/25 09:20:27;;;;;;;59.65;33.17;;;11.80;99.40;;;;;;4958399;28;20061;-84
2022/03/25 09:22:54;;;;;;;55.47;32.78;;;12.50;99.10;;;;;;4941990;28;20031;-84
2022/03/25 09:25:19;;;;;;;71.30;33.53;;;12.60;97.90;;;;;;4940261;28;20485;-85
2022/03/25 09:27:45;;;;;;;66.78;33.05;;;12.60;97.50;;;;;;4949702;28;20177;-84
2022/03/25 09:30:11;;;;;;;51.83;29.23;;;12.10;96.50;;;;;;4943692;28;20057;-82
2022/03/25 09:32:37;;;;;;;60.95;31.67;;;12.40;97.10;;;;;;4933787;28;20064;-86
2022/03/25 09:35:08;;;;;;;62.33;31.33;;;12.90;97.30;;;;;;4951848;28;20038;-87
2022/03/25 09:37:38;;;;;;;56.83;31.38;;;13.10;95.50;;;;;;4935827;28;20425;-85
2022/03/25 09:40:08;;;;;;;47.70;28.38;;;13.60;93.30;;;;;;4938008;28;20050;-87
2022/03/25 09:42:34;;;;;;;56.63;30.38;;;13.80;95.30;;;;;;4933057;28;20395;-86
2022/03/25 09:45:00;;;;;;;50.70;28.83;;;13.90;92.20;;;;;;4954477;28;20041;-85
2022/03/25 09:47:32;;;;;;;49.70;29.33;;;14.40;92.50;;;;;;4932559;28;20040;-86
2022/03/25 09:49:59;;;;;;;63.80;33.97;;;14.80;90.90;;;;;;4940901;28;20486;-85
2022/03/25 09:52:26;;;;;;;51.25;29.35;;;14.10;93.00;;;;;;4974754;28;20077;-86
2022/03/25 09:54:52;;;;;;;57.60;28.98;;;13.10;90.10;;;;;;4940290;28;20128;-84
2022/03/25 09:57:17;;;;;;;55.67;29.98;;;13.40;89.50;;;;;;4948847;28;20482;-85
2022/03/25 09:59:43;;;;;;;45.83;27.35;;;13.90;90.20;;;;;;4937856;28;20034;-85
2022/03/25 10:02:08;;;;;;;44.67;25.05;;;13.80;88.50;;;;;;4960713;28;20034;-85
2022/03/25 10:04:47;;;;;;;48.38;26.60;;;14.60;88.20;;;;;;4949714;28;20390;-84
2022/03/25 10:07:25;;;;;;;50.45;28.80;;;15.40;83.50;;;;;;4938834;28;20038;-84
2022/03/25 10:10:10;;;;;;;45.65;24.85;;;14.50;80.20;;;;;;4994386;28;20516;-85
2022/03/25 10:12:37;;;;;;;51.35;26.50;;;13.90;82.40;;;;;;4976591;28;20022;-84
2022/03/25 10:15:11;;;;;;;40.85;22.80;;;14.30;81.50;;;;;;4942586;28;20022;-85
2022/03/25 10:17:49;;;;;;;40.95;25.63;;;14.30;84.50;;;;;;4987857;28;20026;-85
2022/03/25 10:20:15;;;;;;;46.13;25.08;;;14.30;86.20;;;;;;4961522;28;20078;-86
2022/03/25 10:23:10;;;;;;;37.60;23.08;;;13.80;85.10;;;;;;4949312;28;20385;-86
2022/03/25 10:25:37;;;;;;;42.53;22.95;;;14.40;89.00;;;;;;4949032;28;20115;-85
2022/03/25 10:28:27;;;;;;;44.38;24.23;;;14.20;85.40;;;;;;4964542;28;20026;-85
2022/03/25 10:30:59;;;;;;;36.53;19.60;;;14.20;82.70;;;;;;4990091;28;20030;-85
2022/03/25 10:33:35;;;;;;;38.72;18.05;;;14.20;83.30;;;;;;4941997;28;20046;-84
2022/03/25 10:36:07;;;;;;;38.15;21.08;;;14.40;83.80;;;;;;4940063;28;20498;-85
2022/03/25 10:38:50;;;;;;;33.00;20.15;;;14.70;83.70;;;;;;4958398;28;20027;-85
2022/03/25 10:41:22;;;;;;;37.30;20.83;;;15.20;82.90;;;;;;4937871;28;20038;-85
2022/03/25 10:43:56;;;;;;;40.20;20.60;;;15.80;79.70;;;;;;4951637;28;20034;-85
2022/03/25 10:46:41;;;;;;;34.95;18.38;;;15.60;76.80;;;;;;4942866;28;20184;-83
2022/03/25 10:49:11;;;;;;;35.85;20.45;;;16.50;75.20;;;;;;4954261;28;20062;-85
2022/03/25 10:51:39;;;;;;;44.25;22.50;;;15.90;79.30;;;;;;4949804;28;20027;-85
2022/03/25 10:54:07;;;;;;;41.22;20.98;;;15.40;79.00;;;;;;4965503;28;20440;-83
2022/03/25 10:56:49;;;;;;;34.58;20.48;;;15.80;76.80;;;;;;4944213;28;20065;-82
2022/03/25 10:59:27;;;;;;;39.63;20.77;;;15.70;75.40;;;;;;4955192;28;20100;-83
2022/03/25 11:01:57;;;;;;;38.90;22.15;;;15.60;75.50;;;;;;4960992;28;20490;-84
2022/03/25 11:04:23;;;;;;;40.72;21.58;;;15.80;71.10;;;;;;4952831;28;20098;-81
2022/03/25 11:06:49;;;;;;;37.25;21.75;;;15.40;75.90;;;;;;4931446;28;20076;-83
2022/03/25 11:09:16;;;;;;;42.95;23.52;;;15.40;74.90;;;;;;4937761;28;20493;-84
2022/03/25 11:11:45;;;;;;;43.10;24.00;;;15.40;74.10;;;;;;4943722;28;20170;-83
2022/03/25 11:18:26;;;;;;;39.63;22.50;;;15.30;73.40;;;;;;4855016;29;20067;-82
2022/03/25 11:21:44;;;;;;;;;;;;;;;;;;;;;
2022/03/25 11:27:33;;;;;;;36.33;21.00;;;15.50;75.70;;;;;;4880366;29;20092;-83
2022/03/25 11:30:13;;;;;;;37.08;21.55;;;15.80;76.60;;;;;;4900853;29;20067;-83
2022/03/25 11:32:49;;;;;;;41.03;21.73;;;16.10;76.10;;;;;;4942804;28;20035;-81
2022/03/25 11:35:20;;;;;;;37.25;23.17;;;16.90;75.40;;;;;;4953790;28;20045;-84
2022/03/25 11:37:46;;;;;;;41.25;21.00;;;17.00;73.90;;;;;;4989471;28;20391;-83
2022/03/25 11:40:22;;;;;;;37.78;21.75;;;16.20;73.10;;;;;;4933857;28;20125;-81
2022/03/25 11:42:52;;;;;;;44.88;21.95;;;16.30;72.40;;;;;;4981345;28;20076;-82
2022/03/25 11:45:20;;;;;;;42.25;23.10;;;17.30;70.30;;;;;;4956128;28;20042;-81
2022/03/25 11:48:04;;;;;;;35.97;22.70;;;17.60;68.10;;;;;;4988562;28;20375;-82
2022/03/25 11:51:04;;;;;;;40.10;22.08;;;17.30;70.70;;;;;;4959677;28;20405;-81
2022/03/25 11:53:30;;;;;;;45.25;25.08;;;17.20;69.70;;;;;;4957905;28;20039;-82
2022/03/25 11:56:11;;;;;;;40.38;22.83;;;16.90;71.80;;;;;;4943203;28;20035;-81
2022/03/25 11:58:57;;;;;;;34.92;20.30;;;16.70;71.30;;;;;;4939887;28;20173;-82
2022/03/25 12:01:22;;;;;;;37.92;22.67;;;17.70;69.70;;;;;;4950360;28;20483;-82
2022/03/25 12:03:58;;;;;;;45.58;23.73;;;18.80;67.60;;;;;;4938081;28;20038;-83
2022/03/25 12:06:27;;;;;;;;;;;17.60;67.90;;;;;;4937691;28;20031;-81
2022/03/25 12:09:18;;;;;;;34.30;17.80;;;17.50;66.80;;;;;;4951814;28;19921;-83
2022/03/25 12:11:55;;;;;;;27.23;17.38;;;18.20;64.70;;;;;;4953817;28;20137;-81
2022/03/25 12:14:31;;;;;;;38.47;19.55;;;18.80;65.20;;;;;;4952886;28;20546;-81
2022/03/25 12:16:57;;;;;;;34.70;21.02;;;18.80;62.60;;;;;;4953148;28;20039;-81
2022/03/25 12:19:26;;;;;;;39.97;20.70;;;18.10;63.20;;;;;;4940349;28;20418;-81
2022/03/25 12:21:59;;;;;;;38.38;20.48;;;17.80;66.00;;;;;;4993673;28;20050;-84
2022/03/25 12:24:25;;;;;;;31.92;21.15;;;17.50;60.60;;;;;;4938352;28;20491;-82
2022/03/25 12:26:58;;;;;;;43.40;23.70;;;17.40;63.90;;;;;;4950804;28;20091;-82
2022/03/25 12:29:34;;;;;;;31.73;20.30;;;18.20;63.40;;;;;;4939358;28;20039;-82
2022/03/25 12:32:00;;;;;;;39.20;23.00;;;18.50;60.20;;;;;;4983515;28;20049;-80
2022/03/25 12:34:41;;;;;;;33.13;20.10;;;19.30;60.80;;;;;;4954113;28;20026;-84
2022/03/25 12:37:12;;;;;;;32.63;20.63;;;18.90;62.80;;;;;;4959976;28;20038;-84
2022/03/25 12:39:37;;;;;;;40.20;23.13;;;18.90;62.90;;;;;;4934314;28;20027;-84
2022/03/25 12:42:11;;;;;;;35.08;22.17;;;17.90;63.40;;;;;;4935841;28;20037;-84
2022/03/25 12:44:36;;;;;;;35.97;23.00;;;18.40;61.20;;;;;;4932749;28;20030;-84
2022/03/25 12:47:02;;;;;;;37.78;22.35;;;19.00;60.10;;;;;;4930541;28;20489;-85
2022/03/25 12:49:28;;;;;;;36.25;20.42;;;18.10;58.90;;;;;;4932993;28;20466;-85
2022/03/25 12:52:02;;;;;;;30.73;19.65;;;17.60;59.70;;;;;;4952923;28;20034;-84
2022/03/25 12:54:33;;;;;;;34.28;21.38;;;17.80;60.80;;;;;;4943506;28;20147;-85
2022/03/25 12:57:03;;;;;;;37.05;23.30;;;18.00;57.10;;;;;;4930227;28;20031;-84